createdAt,value
2017-08-20T00:00:22.871Z,20.71
2017-08-20T00:00:55.156Z,20.68
2017-08-20T00:01:27.464Z,20.68
2017-08-20T00:01:59.760Z,20.72
2017-08-20T00:02:32.065Z,20.66
2017-08-20T00:03:04.346Z,20.66
2017-08-20T00:03:36.636Z,20.64
2017-08-20T00:04:08.938Z,20.63
2017-08-20T00:04:41.250Z,20.68
2017-08-20T00:05:13.540Z,20.6
2017-08-20T00:05:45.835Z,20.66
2017-08-20T00:06:18.132Z,20.63
2017-08-20T00:06:50.428Z,20.66
2017-08-20T00:07:22.731Z,20.64
2017-08-20T00:07:55.047Z,20.58
2017-08-20T00:08:27.342Z,20.66
2017-08-20T00:08:59.637Z,20.67
2017-08-20T00:09:31.925Z,20.61
2017-08-20T00:10:04.244Z,20.61
2017-08-20T00:10:36.568Z,20.57
2017-08-20T00:11:08.896Z,20.71
2017-08-20T00:11:41.195Z,20.57
2017-08-20T00:12:13.482Z,20.56
2017-08-20T00:12:45.785Z,20.64
2017-08-20T00:13:18.066Z,20.6
2017-08-20T00:13:50.370Z,20.63
2017-08-20T00:14:22.694Z,20.58
2017-08-20T00:14:54.995Z,20.57
2017-08-20T00:15:27.313Z,20.67
2017-08-20T00:15:59.631Z,20.61
2017-08-20T00:16:31.923Z,20.58
2017-08-20T00:17:04.210Z,20.58
2017-08-20T00:17:36.501Z,20.57
2017-08-20T00:18:08.791Z,20.58
2017-08-20T00:18:41.107Z,20.58
2017-08-20T00:19:13.415Z,20.63
2017-08-20T00:19:45.702Z,20.63
2017-08-20T00:20:18.015Z,20.56
2017-08-20T00:20:50.318Z,20.57
2017-08-20T00:21:22.616Z,20.61
2017-08-20T00:21:54.905Z,20.58
2017-08-20T00:22:27.201Z,20.57
2017-08-20T00:22:59.529Z,20.64
2017-08-20T00:23:31.802Z,20.61
2017-08-20T00:24:04.075Z,20.57
2017-08-20T00:24:36.323Z,20.58
2017-08-20T00:25:08.618Z,20.56
2017-08-20T00:25:41.035Z,20.57
2017-08-20T00:26:13.298Z,20.61
2017-08-20T00:26:45.548Z,20.6
2017-08-20T00:27:17.831Z,20.6
2017-08-20T00:27:50.091Z,20.6
2017-08-20T00:28:22.376Z,20.51
2017-08-20T00:28:54.641Z,20.61
2017-08-20T00:29:26.898Z,20.56
2017-08-20T00:29:59.160Z,20.56
2017-08-20T00:30:32.223Z,20.6
2017-08-20T00:31:04.486Z,20.57
2017-08-20T00:31:36.746Z,20.54
2017-08-20T00:32:09.061Z,20.53
2017-08-20T00:32:41.334Z,20.56
2017-08-20T00:33:13.640Z,20.51
2017-08-20T00:33:45.907Z,20.6
2017-08-20T00:34:18.169Z,20.6
2017-08-20T00:34:50.427Z,20.6
2017-08-20T00:35:22.800Z,20.56
2017-08-20T00:35:55.038Z,20.58
2017-08-20T00:36:27.296Z,20.6
2017-08-20T00:36:59.579Z,20.54
2017-08-20T00:37:31.821Z,20.6
2017-08-20T00:38:04.080Z,20.6
2017-08-20T00:38:36.359Z,20.56
2017-08-20T00:39:08.630Z,20.58
2017-08-20T00:39:40.895Z,20.57
2017-08-20T00:40:13.177Z,20.57
2017-08-20T00:40:45.540Z,20.57
2017-08-20T00:41:17.805Z,20.56
2017-08-20T00:41:50.060Z,20.6
2017-08-20T00:42:22.314Z,20.61
2017-08-20T00:42:54.578Z,20.56
2017-08-20T00:43:26.877Z,20.57
2017-08-20T00:43:59.152Z,20.57
2017-08-20T00:44:31.450Z,20.56
2017-08-20T00:45:03.743Z,20.54
2017-08-20T00:45:36.097Z,20.57
2017-08-20T00:46:08.394Z,20.6
2017-08-20T00:46:40.672Z,20.57
2017-08-20T00:47:13.007Z,20.56
2017-08-20T00:47:45.319Z,20.6
2017-08-20T00:48:17.613Z,20.54
2017-08-20T00:48:49.909Z,20.51
2017-08-20T00:49:22.208Z,20.57
2017-08-20T00:49:54.495Z,20.56
2017-08-20T00:50:26.806Z,20.48
2017-08-20T00:50:59.113Z,20.56
2017-08-20T00:51:31.412Z,20.51
2017-08-20T00:52:03.711Z,20.48
2017-08-20T00:52:36.005Z,20.57
2017-08-20T00:53:08.297Z,20.44
2017-08-20T00:53:40.540Z,20.56
2017-08-20T00:54:12.793Z,20.53
2017-08-20T00:54:45.047Z,20.58
2017-08-20T00:55:17.330Z,20.48
2017-08-20T00:55:49.636Z,20.51
2017-08-20T00:56:21.906Z,20.6
2017-08-20T00:56:54.170Z,20.51
2017-08-20T00:57:26.430Z,20.53
2017-08-20T00:57:58.682Z,20.56
2017-08-20T00:58:30.969Z,20.49
2017-08-20T00:59:03.301Z,20.51
2017-08-20T00:59:35.574Z,20.49
2017-08-20T01:00:07.828Z,20.54
2017-08-20T01:00:40.111Z,20.51
2017-08-20T01:01:12.386Z,20.51
2017-08-20T01:01:44.635Z,20.57
2017-08-20T01:02:16.899Z,20.53
2017-08-20T01:02:49.164Z,20.49
2017-08-20T01:03:21.448Z,20.49
2017-08-20T01:03:53.759Z,20.49
2017-08-20T01:04:26.050Z,20.49
2017-08-20T01:04:58.328Z,20.54
2017-08-20T01:05:30.616Z,20.54
2017-08-20T01:06:02.929Z,20.49
2017-08-20T01:06:35.214Z,20.48
2017-08-20T01:07:07.498Z,20.49
2017-08-20T01:07:39.763Z,20.42
2017-08-20T01:08:12.048Z,20.49
2017-08-20T01:08:44.349Z,20.53
2017-08-20T01:09:16.628Z,20.51
2017-08-20T01:09:48.920Z,20.51
2017-08-20T01:10:21.217Z,20.53
2017-08-20T01:10:53.529Z,20.44
2017-08-20T01:11:25.818Z,20.56
2017-08-20T01:11:58.103Z,20.44
2017-08-20T01:12:30.401Z,20.48
2017-08-20T01:13:02.701Z,20.46
2017-08-20T01:13:34.974Z,20.48
2017-08-20T01:14:07.312Z,20.51
2017-08-20T01:14:39.588Z,20.48
2017-08-20T01:15:11.856Z,20.56
2017-08-20T01:15:44.129Z,20.48
2017-08-20T01:16:16.381Z,20.46
2017-08-20T01:16:48.645Z,20.49
2017-08-20T01:17:20.919Z,20.38
2017-08-20T01:17:53.184Z,20.48
2017-08-20T01:18:25.471Z,20.46
2017-08-20T01:18:57.723Z,20.53
2017-08-20T01:19:29.978Z,20.44
2017-08-20T01:20:02.250Z,20.51
2017-08-20T01:20:34.522Z,20.48
2017-08-20T01:21:06.775Z,20.48
2017-08-20T01:21:39.033Z,20.46
2017-08-20T01:22:11.285Z,20.44
2017-08-20T01:22:43.535Z,20.42
2017-08-20T01:23:15.795Z,20.57
2017-08-20T01:23:48.664Z,20.42
2017-08-20T01:24:20.942Z,20.41
2017-08-20T01:24:53.200Z,20.42
2017-08-20T01:25:25.462Z,20.48
2017-08-20T01:25:57.767Z,20.46
2017-08-20T01:26:30.018Z,20.42
2017-08-20T01:27:02.304Z,20.41
2017-08-20T01:27:34.566Z,20.44
2017-08-20T01:28:06.854Z,20.4
2017-08-20T01:28:39.093Z,20.41
2017-08-20T01:29:11.420Z,20.4
2017-08-20T01:29:43.704Z,20.48
2017-08-20T01:30:15.961Z,20.38
2017-08-20T01:30:48.226Z,20.42
2017-08-20T01:31:20.510Z,20.51
2017-08-20T01:31:52.756Z,20.4
2017-08-20T01:32:25.040Z,20.4
2017-08-20T01:32:57.324Z,20.53
2017-08-20T01:33:29.580Z,20.38
2017-08-20T01:34:02.001Z,20.35
2017-08-20T01:34:34.335Z,20.4
2017-08-20T01:35:06.600Z,20.41
2017-08-20T01:35:38.853Z,20.38
2017-08-20T01:36:11.101Z,20.38
2017-08-20T01:36:43.508Z,20.41
2017-08-20T01:37:15.786Z,20.4
2017-08-20T01:37:48.069Z,20.4
2017-08-20T01:38:20.325Z,20.42
2017-08-20T01:38:52.588Z,20.38
2017-08-20T01:39:25.000Z,20.4
2017-08-20T01:39:57.262Z,20.38
2017-08-20T01:40:29.514Z,20.37
2017-08-20T01:41:01.773Z,20.46
2017-08-20T01:41:34.134Z,20.38
2017-08-20T01:42:06.431Z,20.4
2017-08-20T01:42:38.702Z,20.38
2017-08-20T01:43:10.965Z,20.35
2017-08-20T01:43:43.249Z,20.49
2017-08-20T01:44:15.536Z,20.37
2017-08-20T01:44:47.820Z,20.42
2017-08-20T01:45:20.104Z,20.49
2017-08-20T01:45:52.414Z,20.42
2017-08-20T01:46:24.710Z,20.46
2017-08-20T01:46:57.023Z,20.37
2017-08-20T01:47:29.311Z,20.34
2017-08-20T01:48:01.623Z,20.38
2017-08-20T01:48:33.922Z,20.41
2017-08-20T01:49:06.216Z,20.51
2017-08-20T01:49:38.508Z,20.35
2017-08-20T01:50:10.798Z,20.37
2017-08-20T01:50:43.078Z,20.42
2017-08-20T01:51:15.389Z,20.41
2017-08-20T01:51:47.699Z,20.35
2017-08-20T01:52:20.011Z,20.41
2017-08-20T01:52:52.335Z,20.41
2017-08-20T01:53:24.626Z,20.48
2017-08-20T01:53:56.928Z,20.46
2017-08-20T01:54:29.229Z,20.41
2017-08-20T01:55:01.522Z,20.4
2017-08-20T01:55:33.833Z,20.46
2017-08-20T01:56:06.116Z,20.32
2017-08-20T01:56:38.421Z,20.41
2017-08-20T01:57:10.733Z,20.4
2017-08-20T01:57:43.045Z,20.37
2017-08-20T01:58:15.338Z,20.34
2017-08-20T01:58:47.645Z,20.41
2017-08-20T01:59:19.940Z,20.46
2017-08-20T01:59:52.204Z,20.41
2017-08-20T02:00:24.507Z,20.4
2017-08-20T02:00:56.783Z,20.38
2017-08-20T02:01:29.092Z,20.38
2017-08-20T02:02:01.390Z,20.38
2017-08-20T02:02:33.680Z,20.42
2017-08-20T02:03:05.968Z,20.38
2017-08-20T02:03:38.251Z,20.4
2017-08-20T02:04:10.528Z,20.35
2017-08-20T02:04:42.841Z,20.48
2017-08-20T02:05:15.141Z,20.41
2017-08-20T02:05:47.428Z,20.41
2017-08-20T02:06:19.728Z,20.37
2017-08-20T02:06:52.036Z,20.44
2017-08-20T02:07:24.333Z,20.37
2017-08-20T02:07:56.631Z,20.34
2017-08-20T02:08:28.909Z,20.4
2017-08-20T02:09:01.204Z,20.41
2017-08-20T02:09:33.492Z,20.44
2017-08-20T02:10:05.830Z,20.38
2017-08-20T02:10:38.130Z,20.4
2017-08-20T02:11:10.420Z,20.37
2017-08-20T02:11:42.722Z,20.44
2017-08-20T02:12:15.032Z,20.4
2017-08-20T02:12:47.349Z,20.4
2017-08-20T02:13:19.629Z,20.37
2017-08-20T02:13:51.886Z,20.38
2017-08-20T02:14:24.144Z,20.37
2017-08-20T02:14:56.477Z,20.42
2017-08-20T02:15:28.758Z,20.38
2017-08-20T02:16:01.000Z,20.38
2017-08-20T02:16:33.254Z,20.34
2017-08-20T02:17:05.522Z,20.34
2017-08-20T02:17:37.771Z,20.37
2017-08-20T02:18:10.029Z,20.42
2017-08-20T02:18:42.314Z,20.41
2017-08-20T02:19:14.567Z,20.34
2017-08-20T02:19:46.822Z,20.34
2017-08-20T02:20:19.088Z,20.38
2017-08-20T02:20:51.368Z,20.37
2017-08-20T02:21:23.636Z,20.34
2017-08-20T02:21:55.902Z,20.37
2017-08-20T02:22:28.147Z,20.37
2017-08-20T02:23:00.398Z,20.38
2017-08-20T02:23:32.659Z,20.38
2017-08-20T02:24:04.944Z,20.35
2017-08-20T02:24:37.286Z,20.38
2017-08-20T02:25:09.551Z,20.4
2017-08-20T02:25:41.821Z,20.34
2017-08-20T02:26:14.083Z,20.3
2017-08-20T02:26:46.372Z,20.37
2017-08-20T02:27:18.662Z,20.37
2017-08-20T02:27:50.928Z,20.41
2017-08-20T02:28:23.204Z,20.37
2017-08-20T02:28:55.524Z,20.37
2017-08-20T02:29:27.786Z,20.32
2017-08-20T02:30:00.037Z,20.37
2017-08-20T02:30:32.304Z,20.26
2017-08-20T02:31:04.562Z,20.38
2017-08-20T02:31:36.818Z,20.35
2017-08-20T02:32:09.094Z,20.34
2017-08-20T02:32:41.370Z,20.35
2017-08-20T02:33:13.647Z,20.32
2017-08-20T02:33:45.914Z,20.3
2017-08-20T02:34:18.203Z,20.3
2017-08-20T02:34:50.458Z,20.38
2017-08-20T02:35:22.722Z,20.37
2017-08-20T02:35:55.138Z,20.3
2017-08-20T02:36:27.392Z,20.26
2017-08-20T02:36:59.650Z,20.25
2017-08-20T02:37:31.910Z,20.32
2017-08-20T02:38:04.181Z,20.32
2017-08-20T02:38:36.566Z,20.32
2017-08-20T02:39:08.835Z,20.32
2017-08-20T02:39:41.172Z,20.25
2017-08-20T02:40:13.417Z,20.37
2017-08-20T02:40:45.692Z,20.34
2017-08-20T02:41:17.973Z,20.26
2017-08-20T02:41:50.241Z,20.3
2017-08-20T02:42:22.512Z,20.26
2017-08-20T02:42:54.783Z,20.26
2017-08-20T02:43:27.040Z,20.3
2017-08-20T02:43:59.318Z,20.25
2017-08-20T02:44:31.599Z,20.27
2017-08-20T02:45:03.850Z,20.25
2017-08-20T02:45:36.130Z,20.27
2017-08-20T02:46:08.381Z,20.23
2017-08-20T02:46:40.644Z,20.18
2017-08-20T02:47:12.912Z,20.25
2017-08-20T02:47:45.177Z,20.22
2017-08-20T02:48:17.422Z,20.25
2017-08-20T02:48:49.682Z,20.3
2017-08-20T02:49:21.924Z,20.37
2017-08-20T02:49:54.208Z,20.23
2017-08-20T02:50:26.604Z,20.35
2017-08-20T02:50:58.881Z,20.25
2017-08-20T02:51:31.146Z,20.26
2017-08-20T02:52:03.455Z,20.26
2017-08-20T02:52:35.745Z,20.25
2017-08-20T02:53:08.020Z,20.22
2017-08-20T02:53:40.275Z,20.25
2017-08-20T02:54:12.551Z,20.25
2017-08-20T02:54:44.811Z,20.27
2017-08-20T02:55:17.059Z,20.32
2017-08-20T02:55:49.317Z,20.25
2017-08-20T02:56:21.580Z,20.25
2017-08-20T02:56:53.857Z,20.29
2017-08-20T02:57:26.153Z,20.27
2017-08-20T02:57:58.423Z,20.23
2017-08-20T02:58:30.741Z,20.25
2017-08-20T02:59:02.995Z,20.2
2017-08-20T02:59:35.262Z,20.2
2017-08-20T03:00:07.516Z,20.25
2017-08-20T03:00:39.876Z,20.23
2017-08-20T03:01:12.140Z,20.27
2017-08-20T03:01:44.386Z,20.26
2017-08-20T03:02:16.659Z,20.26
2017-08-20T03:02:48.905Z,20.25
2017-08-20T03:03:21.199Z,20.22
2017-08-20T03:03:53.513Z,20.25
2017-08-20T03:04:25.798Z,20.26
2017-08-20T03:04:58.108Z,20.26
2017-08-20T03:05:30.402Z,20.25
2017-08-20T03:06:02.697Z,20.32
2017-08-20T03:06:34.973Z,20.26
2017-08-20T03:07:07.282Z,20.25
2017-08-20T03:07:39.575Z,20.32
2017-08-20T03:08:11.872Z,20.3
2017-08-20T03:08:44.178Z,20.26
2017-08-20T03:09:16.463Z,20.3
2017-08-20T03:09:48.762Z,20.25
2017-08-20T03:10:21.079Z,20.23
2017-08-20T03:10:53.364Z,20.27
2017-08-20T03:11:25.670Z,20.22
2017-08-20T03:11:57.987Z,20.22
2017-08-20T03:12:30.301Z,20.26
2017-08-20T03:13:02.610Z,20.32
2017-08-20T03:13:34.904Z,20.37
2017-08-20T03:14:07.168Z,20.23
2017-08-20T03:14:39.404Z,20.25
2017-08-20T03:15:11.669Z,20.32
2017-08-20T03:15:43.908Z,20.2
2017-08-20T03:16:16.199Z,20.32
2017-08-20T03:16:48.527Z,20.35
2017-08-20T03:17:20.813Z,20.23
2017-08-20T03:17:53.054Z,20.19
2017-08-20T03:18:25.302Z,20.29
2017-08-20T03:18:57.667Z,20.19
2017-08-20T03:19:29.939Z,20.32
2017-08-20T03:20:02.175Z,20.27
2017-08-20T03:20:34.444Z,20.32
2017-08-20T03:21:06.710Z,20.23
2017-08-20T03:21:39.008Z,20.29
2017-08-20T03:22:11.275Z,20.25
2017-08-20T03:22:43.538Z,20.3
2017-08-20T03:23:15.821Z,20.32
2017-08-20T03:23:48.108Z,20.25
2017-08-20T03:24:20.420Z,20.29
2017-08-20T03:24:52.723Z,20.27
2017-08-20T03:25:25.035Z,20.29
2017-08-20T03:25:57.326Z,20.29
2017-08-20T03:26:29.609Z,20.3
2017-08-20T03:27:01.899Z,20.25
2017-08-20T03:27:34.212Z,20.26
2017-08-20T03:28:06.516Z,20.29
2017-08-20T03:28:38.803Z,20.3
2017-08-20T03:29:11.083Z,20.23
2017-08-20T03:29:43.384Z,20.26
2017-08-20T03:30:15.670Z,20.19
2017-08-20T03:30:47.986Z,20.25
2017-08-20T03:31:20.280Z,20.27
2017-08-20T03:31:52.579Z,20.27
2017-08-20T03:32:24.877Z,20.27
2017-08-20T03:32:57.176Z,20.22
2017-08-20T03:33:29.471Z,20.29
2017-08-20T03:34:01.772Z,20.25
2017-08-20T03:34:34.087Z,20.26
2017-08-20T03:35:06.405Z,20.34
2017-08-20T03:35:38.719Z,20.26
2017-08-20T03:36:11.016Z,20.2
2017-08-20T03:36:43.314Z,20.29
2017-08-20T03:37:15.595Z,20.27
2017-08-20T03:37:47.865Z,20.22
2017-08-20T03:38:20.155Z,20.27
2017-08-20T03:38:52.448Z,20.27
2017-08-20T03:39:24.736Z,20.25
2017-08-20T03:39:57.043Z,20.22
2017-08-20T03:40:29.350Z,20.16
2017-08-20T03:41:01.652Z,20.15
2017-08-20T03:41:33.953Z,20.19
2017-08-20T03:42:06.246Z,20.2
2017-08-20T03:42:38.541Z,20.16
2017-08-20T03:43:10.825Z,20.25
2017-08-20T03:43:43.121Z,20.27
2017-08-20T03:44:15.395Z,20.16
2017-08-20T03:44:47.645Z,20.26
2017-08-20T03:45:19.902Z,20.19
2017-08-20T03:45:52.163Z,20.27
2017-08-20T03:46:24.516Z,20.23
2017-08-20T03:46:56.770Z,20.19
2017-08-20T03:47:29.021Z,20.12
2017-08-20T03:48:01.327Z,20.16
2017-08-20T03:48:33.585Z,20.2
2017-08-20T03:49:06.804Z,20.16
2017-08-20T03:49:39.096Z,20.19
2017-08-20T03:50:11.349Z,20.16
2017-08-20T03:50:43.622Z,20.2
2017-08-20T03:51:15.878Z,20.15
2017-08-20T03:51:48.133Z,20.26
2017-08-20T03:52:20.485Z,20.15
2017-08-20T03:52:52.759Z,20.16
2017-08-20T03:53:25.069Z,20.16
2017-08-20T03:53:57.349Z,20.2
2017-08-20T03:54:29.638Z,20.15
2017-08-20T03:55:01.939Z,20.22
2017-08-20T03:55:34.227Z,20.26
2017-08-20T03:56:06.512Z,20.15
2017-08-20T03:56:38.832Z,20.18
2017-08-20T03:57:11.125Z,20.22
2017-08-20T03:57:43.448Z,20.15
2017-08-20T03:58:15.753Z,20.2
2017-08-20T03:58:48.053Z,20.18
2017-08-20T03:59:20.345Z,20.16
2017-08-20T03:59:52.641Z,20.15
2017-08-20T04:00:24.920Z,20.2
2017-08-20T04:00:57.204Z,20.11
2017-08-20T04:01:29.524Z,20.18
2017-08-20T04:02:01.818Z,20.16
2017-08-20T04:02:34.131Z,20.19
2017-08-20T04:03:06.431Z,20.23
2017-08-20T04:03:38.817Z,20.16
2017-08-20T04:04:11.097Z,20.19
2017-08-20T04:04:43.349Z,20.22
2017-08-20T04:05:15.594Z,20.18
2017-08-20T04:05:47.855Z,20.18
2017-08-20T04:06:20.109Z,20.2
2017-08-20T04:06:52.389Z,20.25
2017-08-20T04:07:24.662Z,20.16
2017-08-20T04:07:56.931Z,20.12
2017-08-20T04:08:29.182Z,20.16
2017-08-20T04:09:01.448Z,20.15
2017-08-20T04:09:33.730Z,20.2
2017-08-20T04:10:06.004Z,20.22
2017-08-20T04:10:38.264Z,20.22
2017-08-20T04:11:10.527Z,20.2
2017-08-20T04:11:42.765Z,20.12
2017-08-20T04:12:15.020Z,20.22
2017-08-20T04:12:47.309Z,20.18
2017-08-20T04:13:19.568Z,20.22
2017-08-20T04:13:51.861Z,20.19
2017-08-20T04:14:24.153Z,20.12
2017-08-20T04:14:56.439Z,20.18
2017-08-20T04:15:28.722Z,20.22
2017-08-20T04:16:01.013Z,20.2
2017-08-20T04:16:33.281Z,20.25
2017-08-20T04:17:05.570Z,20.18
2017-08-20T04:17:37.872Z,20.16
2017-08-20T04:18:10.171Z,20.2
2017-08-20T04:18:42.483Z,20.16
2017-08-20T04:19:14.803Z,20.18
2017-08-20T04:19:47.106Z,20.18
2017-08-20T04:20:19.413Z,20.15
2017-08-20T04:20:51.697Z,20.19
2017-08-20T04:21:24.000Z,20.15
2017-08-20T04:21:56.283Z,20.15
2017-08-20T04:22:28.590Z,20.22
2017-08-20T04:23:00.876Z,20.18
2017-08-20T04:23:33.133Z,20.2
2017-08-20T04:24:05.387Z,20.11
2017-08-20T04:24:37.751Z,20.23
2017-08-20T04:25:10.011Z,20.15
2017-08-20T04:25:42.286Z,20.18
2017-08-20T04:26:14.540Z,20.22
2017-08-20T04:26:46.776Z,20.2
2017-08-20T04:27:19.031Z,20.15
2017-08-20T04:27:51.269Z,20.16
2017-08-20T04:28:23.552Z,20.15
2017-08-20T04:28:55.837Z,20.2
2017-08-20T04:29:28.117Z,20.16
2017-08-20T04:30:00.370Z,20.23
2017-08-20T04:30:32.643Z,20.18
2017-08-20T04:31:04.906Z,20.18
2017-08-20T04:31:37.255Z,20.19
2017-08-20T04:32:09.504Z,20.2
2017-08-20T04:32:41.780Z,20.19
2017-08-20T04:33:14.045Z,20.23
2017-08-20T04:33:46.328Z,20.26
2017-08-20T04:34:18.599Z,20.16
2017-08-20T04:34:50.964Z,20.19
2017-08-20T04:35:23.205Z,20.19
2017-08-20T04:35:55.626Z,20.15
2017-08-20T04:36:27.883Z,20.15
2017-08-20T04:37:00.155Z,20.16
2017-08-20T04:37:32.424Z,20.16
2017-08-20T04:38:04.683Z,20.18
2017-08-20T04:38:36.939Z,20.18
2017-08-20T04:39:09.285Z,20.2
2017-08-20T04:39:41.551Z,20.18
2017-08-20T04:40:13.810Z,20.18
2017-08-20T04:40:46.094Z,20.15
2017-08-20T04:41:18.365Z,20.12
2017-08-20T04:41:50.787Z,20.12
2017-08-20T04:42:23.031Z,20.19
2017-08-20T04:42:55.298Z,20.15
2017-08-20T04:43:27.572Z,20.16
2017-08-20T04:43:59.938Z,20.18
2017-08-20T04:44:32.199Z,20.19
2017-08-20T04:45:04.459Z,20.19
2017-08-20T04:45:36.714Z,20.18
2017-08-20T04:46:08.958Z,20.19
2017-08-20T04:46:41.204Z,20.19
2017-08-20T04:47:13.470Z,20.15
2017-08-20T04:47:45.782Z,20.19
2017-08-20T04:48:18.045Z,20.18
2017-08-20T04:48:50.272Z,20.18
2017-08-20T04:49:22.543Z,20.2
2017-08-20T04:49:54.823Z,20.16
2017-08-20T04:50:27.084Z,20.11
2017-08-20T04:50:59.343Z,20.18
2017-08-20T04:51:31.609Z,20.2
2017-08-20T04:52:03.881Z,20.19
2017-08-20T04:52:36.206Z,20.16
2017-08-20T04:53:08.468Z,20.15
2017-08-20T04:53:40.802Z,20.18
2017-08-20T04:54:13.070Z,20.19
2017-08-20T04:54:45.341Z,20.2
2017-08-20T04:55:17.616Z,20.1
2017-08-20T04:55:49.941Z,20.19
2017-08-20T04:56:22.213Z,20.23
2017-08-20T04:56:54.465Z,20.12
2017-08-20T04:57:26.766Z,20.16
2017-08-20T04:57:59.046Z,20.18
2017-08-20T04:58:31.375Z,20.18
2017-08-20T04:59:03.648Z,20.12
2017-08-20T04:59:35.908Z,20.16
2017-08-20T05:00:08.171Z,20.18
2017-08-20T05:00:40.413Z,20.2
2017-08-20T05:01:12.688Z,20.2
2017-08-20T05:01:44.941Z,20.23
2017-08-20T05:02:17.242Z,20.26
2017-08-20T05:02:49.524Z,20.18
2017-08-20T05:03:21.761Z,20.16
2017-08-20T05:03:54.026Z,20.23
2017-08-20T05:04:26.281Z,20.22
2017-08-20T05:04:58.541Z,20.29
2017-08-20T05:05:30.826Z,20.22
2017-08-20T05:06:03.110Z,20.16
2017-08-20T05:06:35.372Z,20.2
2017-08-20T05:07:07.632Z,20.15
2017-08-20T05:07:39.869Z,20.23
2017-08-20T05:08:12.792Z,20.26
2017-08-20T05:08:45.053Z,20.29
2017-08-20T05:09:17.332Z,20.19
2017-08-20T05:09:49.564Z,20.27
2017-08-20T05:10:21.821Z,20.25
2017-08-20T05:10:54.149Z,20.27
2017-08-20T05:11:26.430Z,20.27
2017-08-20T05:11:58.694Z,20.18
2017-08-20T05:12:30.953Z,20.32
2017-08-20T05:13:03.251Z,20.25
2017-08-20T05:13:35.513Z,20.32
2017-08-20T05:14:07.787Z,20.3
2017-08-20T05:14:40.045Z,20.29
2017-08-20T05:15:12.308Z,20.26
2017-08-20T05:15:44.575Z,20.32
2017-08-20T05:16:16.851Z,20.3
2017-08-20T05:16:49.120Z,20.32
2017-08-20T05:17:21.383Z,20.34
2017-08-20T05:17:53.757Z,20.2
2017-08-20T05:18:26.027Z,20.23
2017-08-20T05:18:58.301Z,20.2
2017-08-20T05:19:30.586Z,20.23
2017-08-20T05:20:02.825Z,20.25
2017-08-20T05:20:35.084Z,20.23
2017-08-20T05:21:07.351Z,20.22
2017-08-20T05:21:39.741Z,20.26
2017-08-20T05:22:11.986Z,20.25
2017-08-20T05:22:44.293Z,20.26
2017-08-20T05:23:16.556Z,20.25
2017-08-20T05:23:48.838Z,20.27
2017-08-20T05:24:21.108Z,20.27
2017-08-20T05:24:53.374Z,20.23
2017-08-20T05:25:25.627Z,20.23
2017-08-20T05:25:57.887Z,20.23
2017-08-20T05:26:30.151Z,20.34
2017-08-20T05:27:02.431Z,20.25
2017-08-20T05:27:34.801Z,20.26
2017-08-20T05:28:07.071Z,20.34
2017-08-20T05:28:39.292Z,20.25
2017-08-20T05:29:11.587Z,20.32
2017-08-20T05:29:44.425Z,20.38
2017-08-20T05:30:16.691Z,20.32
2017-08-20T05:30:49.016Z,20.37
2017-08-20T05:31:21.288Z,20.38
2017-08-20T05:31:53.594Z,20.37
2017-08-20T05:32:25.892Z,20.4
2017-08-20T05:32:58.175Z,20.34
2017-08-20T05:33:30.426Z,20.4
2017-08-20T05:34:02.693Z,20.4
2017-08-20T05:34:34.966Z,20.37
2017-08-20T05:35:07.238Z,20.34
2017-08-20T05:35:39.492Z,20.37
2017-08-20T05:36:11.767Z,20.37
2017-08-20T05:36:44.018Z,20.48
2017-08-20T05:37:16.268Z,20.34
2017-08-20T05:37:48.554Z,20.35
2017-08-20T05:38:20.860Z,20.32
2017-08-20T05:38:53.151Z,20.41
2017-08-20T05:39:25.413Z,20.38
2017-08-20T05:39:57.666Z,20.44
2017-08-20T05:40:29.923Z,20.38
2017-08-20T05:41:02.198Z,20.42
2017-08-20T05:41:34.547Z,20.51
2017-08-20T05:42:06.811Z,20.42
2017-08-20T05:42:39.090Z,20.48
2017-08-20T05:43:11.362Z,20.51
2017-08-20T05:43:43.656Z,20.49
2017-08-20T05:44:15.951Z,20.53
2017-08-20T05:44:48.252Z,20.46
2017-08-20T05:45:20.550Z,20.49
2017-08-20T05:45:52.850Z,20.44
2017-08-20T05:46:25.135Z,20.48
2017-08-20T05:46:57.441Z,20.53
2017-08-20T05:47:29.751Z,20.6
2017-08-20T05:48:02.056Z,20.57
2017-08-20T05:48:34.356Z,20.57
2017-08-20T05:49:06.647Z,20.61
2017-08-20T05:49:38.932Z,20.57
2017-08-20T05:50:11.227Z,20.63
2017-08-20T05:50:43.550Z,20.6
2017-08-20T05:51:15.844Z,20.61
2017-08-20T05:51:48.145Z,20.64
2017-08-20T05:52:20.457Z,20.68
2017-08-20T05:52:52.756Z,20.68
2017-08-20T05:53:25.066Z,20.75
2017-08-20T05:53:57.369Z,20.72
2017-08-20T05:54:29.675Z,20.68
2017-08-20T05:55:01.951Z,20.68
2017-08-20T05:55:34.251Z,20.74
2017-08-20T05:56:06.585Z,20.79
2017-08-20T05:56:38.887Z,20.79
2017-08-20T05:57:11.436Z,20.83
2017-08-20T05:57:44.427Z,20.78
2017-08-20T05:58:16.740Z,20.86
2017-08-20T05:58:49.022Z,20.85
2017-08-20T05:59:21.318Z,20.82
2017-08-20T05:59:53.605Z,20.81
2017-08-20T06:00:25.896Z,20.76
2017-08-20T06:00:58.198Z,20.86
2017-08-20T06:01:30.483Z,20.91
2017-08-20T06:02:02.776Z,20.83
2017-08-20T06:02:35.072Z,20.93
2017-08-20T06:03:07.383Z,20.9
2017-08-20T06:03:39.673Z,21.01
2017-08-20T06:04:11.973Z,20.93
2017-08-20T06:04:44.291Z,21
2017-08-20T06:05:16.576Z,20.97
2017-08-20T06:05:48.878Z,20.97
2017-08-20T06:06:21.177Z,21
2017-08-20T06:06:53.469Z,21.03
2017-08-20T06:07:25.744Z,21
2017-08-20T06:07:58.064Z,20.93
2017-08-20T06:08:30.361Z,21.11
2017-08-20T06:09:02.659Z,21.01
2017-08-20T06:09:34.956Z,21
2017-08-20T06:10:07.268Z,21.04
2017-08-20T06:10:39.555Z,21.11
2017-08-20T06:11:11.865Z,21.09
2017-08-20T06:11:44.141Z,21.11
2017-08-20T06:12:16.454Z,21.11
2017-08-20T06:12:48.730Z,21.11
2017-08-20T06:13:21.016Z,21.15
2017-08-20T06:13:53.295Z,21.22
2017-08-20T06:14:25.592Z,21.25
2017-08-20T06:14:57.883Z,21.19
2017-08-20T06:15:30.202Z,21.28
2017-08-20T06:16:02.509Z,21.3
2017-08-20T06:16:34.804Z,21.22
2017-08-20T06:17:07.105Z,21.34
2017-08-20T06:17:39.405Z,21.28
2017-08-20T06:18:11.691Z,21.27
2017-08-20T06:18:43.997Z,21.28
2017-08-20T06:19:16.287Z,21.3
2017-08-20T06:19:48.572Z,21.34
2017-08-20T06:20:20.870Z,21.41
2017-08-20T06:20:53.139Z,21.38
2017-08-20T06:21:25.436Z,21.37
2017-08-20T06:21:57.731Z,21.49
2017-08-20T06:22:30.021Z,21.51
2017-08-20T06:23:02.335Z,21.46
2017-08-20T06:23:34.626Z,21.46
2017-08-20T06:24:06.937Z,21.46
2017-08-20T06:24:39.230Z,21.46
2017-08-20T06:25:11.519Z,21.53
2017-08-20T06:25:43.825Z,21.51
2017-08-20T06:26:16.144Z,21.53
2017-08-20T06:26:48.457Z,21.49
2017-08-20T06:27:20.768Z,21.55
2017-08-20T06:27:53.061Z,21.61
2017-08-20T06:28:25.353Z,21.67
2017-08-20T06:28:57.638Z,21.67
2017-08-20T06:29:29.943Z,21.59
2017-08-20T06:30:02.255Z,21.66
2017-08-20T06:30:34.519Z,21.71
2017-08-20T06:31:06.828Z,21.8
2017-08-20T06:31:39.111Z,21.74
2017-08-20T06:32:11.406Z,21.74
2017-08-20T06:32:43.723Z,21.78
2017-08-20T06:33:16.030Z,21.76
2017-08-20T06:33:48.314Z,21.74
2017-08-20T06:34:20.579Z,21.77
2017-08-20T06:34:52.868Z,21.8
2017-08-20T06:35:25.277Z,21.77
2017-08-20T06:35:57.578Z,21.83
2017-08-20T06:36:29.832Z,21.85
2017-08-20T06:37:02.113Z,21.86
2017-08-20T06:37:34.368Z,21.93
2017-08-20T06:38:06.632Z,21.96
2017-08-20T06:38:38.946Z,21.96
2017-08-20T06:39:11.241Z,21.96
2017-08-20T06:39:43.528Z,22.09
2017-08-20T06:40:15.833Z,22.02
2017-08-20T06:40:48.114Z,22.04
2017-08-20T06:41:20.394Z,22.14
2017-08-20T06:41:52.668Z,22.11
2017-08-20T06:42:24.946Z,22.12
2017-08-20T06:42:57.207Z,22.11
2017-08-20T06:43:29.506Z,22.14
2017-08-20T06:44:01.820Z,22.12
2017-08-20T06:44:34.103Z,22.22
2017-08-20T06:45:06.419Z,22.07
2017-08-20T06:45:38.727Z,22.09
2017-08-20T06:46:11.035Z,22.23
2017-08-20T06:46:43.307Z,22.27
2017-08-20T06:47:15.612Z,22.26
2017-08-20T06:47:47.917Z,22.2
2017-08-20T06:48:20.199Z,22.34
2017-08-20T06:48:52.482Z,22.22
2017-08-20T06:49:24.777Z,22.27
2017-08-20T06:49:57.090Z,22.38
2017-08-20T06:50:29.385Z,22.41
2017-08-20T06:51:01.671Z,22.38
2017-08-20T06:51:34.003Z,22.36
2017-08-20T06:52:06.310Z,22.33
2017-08-20T06:52:38.597Z,22.42
2017-08-20T06:53:10.890Z,22.42
2017-08-20T06:53:43.195Z,22.45
2017-08-20T06:54:15.488Z,22.48
2017-08-20T06:54:47.762Z,22.48
2017-08-20T06:55:20.052Z,22.48
2017-08-20T06:55:52.348Z,22.51
2017-08-20T06:56:24.632Z,22.51
2017-08-20T06:56:56.909Z,22.55
2017-08-20T06:57:29.193Z,22.59